sensor_id;sensor_type;location;lat;lon;timestamp;pressure;altitude;pressure_sealevel;temperature;humidity
50268;BME280;36153;50.960;6.220;2022-11-20T00:00:35;100224.09;;;8.05;59.51
50268;BME280;36153;50.960;6.220;2022-11-20T00:03:36;100224.19;;;8.11;59.28
50268;BME280;36153;50.960;6.220;2022-11-20T00:06:36;100221.72;;;8.17;59.11
50268;BME280;36153;50.960;6.220;2022-11-20T00:09:37;100221.72;;;8.17;58.99
50268;BME280;36153;50.960;6.220;2022-11-20T00:12:37;100227.72;;;8.15;59.00
50268;BME280;36153;50.960;6.220;2022-11-20T00:15:38;100224.09;;;8.03;58.89
50268;BME280;36153;50.960;6.220;2022-11-20T00:18:39;100220.38;;;7.89;59.80
50268;BME280;36153;50.960;6.220;2022-11-20T00:21:40;100216.94;;;7.92;60.19
50268;BME280;36153;50.960;6.220;2022-11-20T00:24:40;100215.25;;;7.92;59.96
50268;BME280;36153;50.960;6.220;2022-11-20T00:27:41;100206.25;;;7.72;60.13
50268;BME280;36153;50.960;6.220;2022-11-20T00:30:42;100200.94;;;7.65;60.47
50268;BME280;36153;50.960;6.220;2022-11-20T00:33:43;100201.00;;;7.68;60.33
50268;BME280;36153;50.960;6.220;2022-11-20T00:36:44;100204.53;;;7.74;60.23
50268;BME280;36153;50.960;6.220;2022-11-20T00:39:44;100203.03;;;7.85;60.57
50268;BME280;36153;50.960;6.220;2022-11-20T00:42:45;100208.38;;;7.94;60.08
50268;BME280;36153;50.960;6.220;2022-11-20T00:45:45;100210.13;;;7.95;59.88
50268;BME280;36153;50.960;6.220;2022-11-20T00:48:46;100206.25;;;7.73;59.92
50268;BME280;36153;50.960;6.220;2022-11-20T00:51:47;100209.78;;;7.75;59.73
50268;BME280;36153;50.960;6.220;2022-11-20T00:54:47;100208.38;;;7.94;59.75
50268;BME280;36153;50.960;6.220;2022-11-20T00:57:48;100208.41;;;7.97;59.32
50268;BME280;36153;50.960;6.220;2022-11-20T01:00:49;100199.69;;;7.92;59.28
50268;BME280;36153;50.960;6.220;2022-11-20T01:03:51;100203.41;;;8.08;59.00
50268;BME280;36153;50.960;6.220;2022-11-20T01:06:52;100201.00;;;8.19;58.72
50268;BME280;36153;50.960;6.220;2022-11-20T01:09:52;100198.56;;;8.28;58.13
50268;BME280;36153;50.960;6.220;2022-11-20T01:12:53;100206.47;;;8.37;57.93
50268;BME280;36153;50.960;6.220;2022-11-20T01:16:20;100206.41;;;8.33;57.67
50268;BME280;36153;50.960;6.220;2022-11-20T01:19:22;100203.59;;;8.19;58.07
50268;BME280;36153;50.960;6.220;2022-11-20T01:22:23;100201.06;;;8.22;58.26
50268;BME280;36153;50.960;6.220;2022-11-20T01:25:23;100199.50;;;8.33;58.01
50268;BME280;36153;50.960;6.220;2022-11-20T01:28:24;100198.69;;;8.37;57.60
50268;BME280;36153;50.960;6.220;2022-11-20T01:31:43;100186.75;;;8.46;57.58
50268;BME280;36153;50.960;6.220;2022-11-20T01:34:44;100188.41;;;8.41;57.66
50268;BME280;36153;50.960;6.220;2022-11-20T01:37:45;100179.69;;;8.38;57.65
50268;BME280;36153;50.960;6.220;2022-11-20T01:40:53;100178.84;;;8.38;57.53
50268;BME280;36153;50.960;6.220;2022-11-20T01:43:53;100178.84;;;8.38;57.65
50268;BME280;36153;50.960;6.220;2022-11-20T01:47:00;100173.56;;;8.33;57.66
50268;BME280;36153;50.960;6.220;2022-11-20T01:50:17;100177.22;;;8.45;57.93
50268;BME280;36153;50.960;6.220;2022-11-20T01:53:21;100168.50;;;8.41;57.79
50268;BME280;36153;50.960;6.220;2022-11-20T01:56:23;100166.75;;;8.40;57.94
50268;BME280;36153;50.960;6.220;2022-11-20T01:59:25;100161.56;;;8.40;58.15
50268;BME280;36153;50.960;6.220;2022-11-20T02:02:26;100167.66;;;8.41;58.35
50268;BME280;36153;50.960;6.220;2022-11-20T02:08:43;100164.94;;;8.34;58.20
50268;BME280;36153;50.960;6.220;2022-11-20T02:11:43;100169.44;;;8.45;58.07
50268;BME280;36153;50.960;6.220;2022-11-20T02:14:44;100164.91;;;8.31;58.35
50268;BME280;36153;50.960;6.220;2022-11-20T02:17:44;100161.38;;;8.28;58.65
50268;BME280;36153;50.960;6.220;2022-11-20T02:20:47;100169.44;;;8.45;58.49
50268;BME280;36153;50.960;6.220;2022-11-20T02:24:04;100162.50;;;8.44;58.58
50268;BME280;36153;50.960;6.220;2022-11-20T02:27:10;100153.88;;;8.45;58.95
50268;BME280;36153;50.960;6.220;2022-11-20T02:30:12;100159.88;;;8.42;58.61
50268;BME280;36153;50.960;6.220;2022-11-20T02:33:12;100162.59;;;8.50;58.73
50268;BME280;36153;50.960;6.220;2022-11-20T02:36:15;100161.50;;;8.35;58.59
50268;BME280;36153;50.960;6.220;2022-11-20T02:39:16;100157.19;;;8.37;58.98
50268;BME280;36153;50.960;6.220;2022-11-20T02:42:17;100165.78;;;8.33;59.21
50268;BME280;36153;50.960;6.220;2022-11-20T02:45:17;100160.59;;;8.33;59.17
50268;BME280;36153;50.960;6.220;2022-11-20T02:48:18;100165.53;;;8.18;60.19
50268;BME280;36153;50.960;6.220;2022-11-20T02:51:19;100161.53;;;8.37;59.49
50268;BME280;36153;50.960;6.220;2022-11-20T02:54:19;100155.31;;;8.27;59.69
50268;BME280;36153;50.960;6.220;2022-11-20T02:57:19;100157.97;;;8.30;59.89
50268;BME280;36153;50.960;6.220;2022-11-20T03:00:20;100170.97;;;8.33;59.39
50268;BME280;36153;50.960;6.220;2022-11-20T03:03:20;100165.16;;;8.47;58.94
50268;BME280;36153;50.960;6.220;2022-11-20T03:06:21;100162.75;;;8.61;58.91
50268;BME280;36153;50.960;6.220;2022-11-20T03:09:21;100170.41;;;8.53;59.07
50268;BME280;36153;50.960;6.220;2022-11-20T03:12:22;100160.03;;;8.51;59.02
50268;BME280;36153;50.960;6.220;2022-11-20T03:15:23;100157.38;;;8.47;59.30
50268;BME280;36153;50.960;6.220;2022-11-20T03:18:24;100152.84;;;8.35;59.36
50268;BME280;36153;50.960;6.220;2022-11-20T03:21:25;100158.13;;;8.41;59.65
50268;BME280;36153;50.960;6.220;2022-11-20T03:24:25;100158.25;;;8.49;59.10
50268;BME280;36153;50.960;6.220;2022-11-20T03:27:26;100161.31;;;8.23;59.75
50268;BME280;36153;50.960;6.220;2022-11-20T03:30:26;100159.38;;;8.11;59.92
50268;BME280;36153;50.960;6.220;2022-11-20T03:33:28;100160.25;;;8.09;60.35
50268;BME280;36153;50.960;6.220;2022-11-20T03:36:28;100162.06;;;8.16;60.33
50268;BME280;36153;50.960;6.220;2022-11-20T03:39:29;100150.13;;;8.27;60.44
50268;BME280;36153;50.960;6.220;2022-11-20T03:42:29;100162.06;;;8.16;60.29
50268;BME280;36153;50.960;6.220;2022-11-20T03:45:45;100158.59;;;8.15;60.38
50268;BME280;36153;50.960;6.220;2022-11-20T03:48:46;100149.13;;;8.17;60.57
50268;BME280;36153;50.960;6.220;2022-11-20T03:51:47;100152.56;;;8.16;60.94
50268;BME280;36153;50.960;6.220;2022-11-20T03:54:48;100145.00;;;8.30;61.25
50268;BME280;36153;50.960;6.220;2022-11-20T03:57:48;100141.03;;;8.52;60.00
50268;BME280;36153;50.960;6.220;2022-11-20T04:00:49;100143.16;;;8.23;60.56
50268;BME280;36153;50.960;6.220;2022-11-20T04:03:51;100143.56;;;8.48;60.19
50268;BME280;36153;50.960;6.220;2022-11-20T04:06:52;100140.84;;;8.42;59.33
50268;BME280;36153;50.960;6.220;2022-11-20T04:09:52;100143.19;;;8.26;59.79
50268;BME280;36153;50.960;6.220;2022-11-20T04:12:53;100141.22;;;8.10;60.20
50268;BME280;36153;50.960;6.220;2022-11-20T04:15:57;100134.31;;;8.09;61.01
50268;BME280;36153;50.960;6.220;2022-11-20T04:18:59;100141.34;;;8.16;60.50
50268;BME280;36153;50.960;6.220;2022-11-20T04:22:00;100140.34;;;8.08;60.91
50268;BME280;36153;50.960;6.220;2022-11-20T04:25:01;100140.09;;;7.92;60.88
50268;BME280;36153;50.960;6.220;2022-11-20T04:28:01;100137.53;;;7.94;61.07
50268;BME280;36153;50.960;6.220;2022-11-20T04:31:04;100140.13;;;7.95;60.85
50268;BME280;36153;50.960;6.220;2022-11-20T04:34:06;100138.44;;;7.97;61.02
50268;BME280;36153;50.960;6.220;2022-11-20T04:37:07;100133.63;;;8.20;60.50
50268;BME280;36153;50.960;6.220;2022-11-20T04:40:08;100129.38;;;8.26;60.46
50268;BME280;36153;50.960;6.220;2022-11-20T04:43:08;100128.53;;;8.27;59.97
50268;BME280;36153;50.960;6.220;2022-11-20T04:46:09;100132.22;;;8.43;59.58
50268;BME280;36153;50.960;6.220;2022-11-20T04:49:10;100123.78;;;8.54;59.44
50268;BME280;36153;50.960;6.220;2022-11-20T04:52:11;100134.81;;;8.43;59.36
50268;BME280;36153;50.960;6.220;2022-11-20T04:55:11;100131.25;;;8.37;59.10
50268;BME280;36153;50.960;6.220;2022-11-20T04:58:12;100131.19;;;8.31;59.46
50268;BME280;36153;50.960;6.220;2022-11-20T05:01:15;100128.38;;;8.16;60.26
50268;BME280;36153;50.960;6.220;2022-11-20T05:04:16;100129.44;;;8.32;59.63
50268;BME280;36153;50.960;6.220;2022-11-20T05:07:16;100140.53;;;8.20;59.75
50268;BME280;36153;50.960;6.220;2022-11-20T05:10:17;100135.41;;;8.25;59.94
50268;BME280;36153;50.960;6.220;2022-11-20T05:13:17;100140.41;;;8.12;59.71
50268;BME280;36153;50.960;6.220;2022-11-20T05:16:21;100140.22;;;8.01;60.23
50268;BME280;36153;50.960;6.220;2022-11-20T05:19:21;100140.19;;;8.00;59.84
50268;BME280;36153;50.960;6.220;2022-11-20T05:22:22;100136.00;;;8.08;60.29
50268;BME280;36153;50.960;6.220;2022-11-20T05:25:22;100127.59;;;8.22;60.07
50268;BME280;36153;50.960;6.220;2022-11-20T05:28:23;100132.97;;;8.35;58.65
50268;BME280;36153;50.960;6.220;2022-11-20T05:31:24;100129.22;;;8.15;59.83
50268;BME280;36153;50.960;6.220;2022-11-20T05:34:25;100129.00;;;8.02;59.75
50268;BME280;36153;50.960;6.220;2022-11-20T05:37:25;100127.13;;;7.92;59.85
50268;BME280;36153;50.960;6.220;2022-11-20T05:40:25;100124.59;;;7.97;59.92
50268;BME280;36153;50.960;6.220;2022-11-20T05:43:26;100117.75;;;8.00;59.68
50268;BME280;36153;50.960;6.220;2022-11-20T05:46:26;100125.44;;;7.94;59.29
50268;BME280;36153;50.960;6.220;2022-11-20T05:49:27;100124.81;;;8.09;59.42
50268;BME280;36153;50.960;6.220;2022-11-20T05:52:30;100121.00;;;7.89;59.34
50268;BME280;36153;50.960;6.220;2022-11-20T05:55:31;100124.66;;;8.01;58.81
50268;BME280;36153;50.960;6.220;2022-11-20T05:58:31;100127.31;;;8.03;59.15
50268;BME280;36153;50.960;6.220;2022-11-20T06:01:32;100137.59;;;7.98;58.97
50268;BME280;36153;50.960;6.220;2022-11-20T06:04:32;100133.19;;;7.94;59.45
50268;BME280;36153;50.960;6.220;2022-11-20T06:07:33;100128.19;;;8.05;59.13
50268;BME280;36153;50.960;6.220;2022-11-20T06:10:33;100131.66;;;8.07;59.11
50268;BME280;36153;50.960;6.220;2022-11-20T06:13:34;100125.78;;;8.16;59.11
50268;BME280;36153;50.960;6.220;2022-11-20T06:16:34;100134.69;;;7.80;59.75
50268;BME280;36153;50.960;6.220;2022-11-20T06:19:35;100132.28;;;7.89;59.76
50268;BME280;36153;50.960;6.220;2022-11-20T06:22:35;100141.72;;;7.87;59.29
50268;BME280;36153;50.960;6.220;2022-11-20T06:25:42;100149.25;;;7.73;60.17
50268;BME280;36153;50.960;6.220;2022-11-20T06:28:43;100149.31;;;7.76;59.96
50268;BME280;36153;50.960;6.220;2022-11-20T06:31:43;100150.09;;;7.72;59.96
50268;BME280;36153;50.960;6.220;2022-11-20T06:34:43;100155.25;;;7.71;60.03
50268;BME280;36153;50.960;6.220;2022-11-20T06:37:44;100150.88;;;7.66;60.22
50268;BME280;36153;50.960;6.220;2022-11-20T06:40:44;100159.47;;;7.65;60.67
50268;BME280;36153;50.960;6.220;2022-11-20T06:43:44;100163.81;;;7.65;61.44
50268;BME280;36153;50.960;6.220;2022-11-20T06:46:45;100159.47;;;7.64;61.17
50268;BME280;36153;50.960;6.220;2022-11-20T06:49:45;100167.16;;;7.59;61.22
50268;BME280;36153;50.960;6.220;2022-11-20T06:52:45;100164.56;;;7.59;61.57
50268;BME280;36153;50.960;6.220;2022-11-20T06:55:46;100169.78;;;7.61;61.80
50268;BME280;36153;50.960;6.220;2022-11-20T06:58:47;100166.06;;;7.46;61.97
50268;BME280;36153;50.960;6.220;2022-11-20T07:01:47;100161.00;;;7.54;62.18
50268;BME280;36153;50.960;6.220;2022-11-20T07:04:48;100169.56;;;7.50;62.38
50268;BME280;36153;50.960;6.220;2022-11-20T07:07:48;100164.63;;;7.62;62.85
50268;BME280;36153;50.960;6.220;2022-11-20T07:10:48;100170.03;;;7.76;62.70
50268;BME280;36153;50.960;6.220;2022-11-20T07:13:49;100164.84;;;7.75;62.07
50268;BME280;36153;50.960;6.220;2022-11-20T07:16:49;100168.44;;;7.83;62.17
50268;BME280;36153;50.960;6.220;2022-11-20T07:19:50;100166.53;;;7.73;62.35
50268;BME280;36153;50.960;6.220;2022-11-20T07:22:55;100157.97;;;7.77;62.19
50268;BME280;36153;50.960;6.220;2022-11-20T07:25:55;100163.81;;;7.65;62.44
50268;BME280;36153;50.960;6.220;2022-11-20T07:28:56;100156.47;;;7.91;62.52
50268;BME280;36153;50.960;6.220;2022-11-20T07:31:56;100149.66;;;7.96;62.29
50268;BME280;36153;50.960;6.220;2022-11-20T07:34:57;100147.97;;;8.00;62.10
50268;BME280;36153;50.960;6.220;2022-11-20T07:37:57;100151.75;;;8.19;62.05
50268;BME280;36153;50.960;6.220;2022-11-20T07:40:57;100143.81;;;8.11;62.36
50268;BME280;36153;50.960;6.220;2022-11-20T07:43:58;100149.09;;;8.14;62.20
50268;BME280;36153;50.960;6.220;2022-11-20T07:46:58;100142.13;;;8.12;62.01
50268;BME280;36153;50.960;6.220;2022-11-20T07:49:59;100149.09;;;8.14;61.68
50268;BME280;36153;50.960;6.220;2022-11-20T07:53:04;100145.56;;;8.11;61.81
50268;BME280;36153;50.960;6.220;2022-11-20T07:56:04;100141.34;;;8.17;61.32
50268;BME280;36153;50.960;6.220;2022-11-20T07:59:05;100148.06;;;8.03;61.41
50268;BME280;36153;50.960;6.220;2022-11-20T08:02:05;100141.78;;;7.90;61.41
50268;BME280;36153;50.960;6.220;2022-11-20T08:05:07;100146.06;;;7.86;61.37
50268;BME280;36153;50.960;6.220;2022-11-20T08:08:07;100156.84;;;8.13;61.39
50268;BME280;36153;50.960;6.220;2022-11-20T08:11:08;100152.41;;;8.07;61.33
50268;BME280;36153;50.960;6.220;2022-11-20T08:14:27;100151.69;;;8.16;61.38
50268;BME280;36153;50.960;6.220;2022-11-20T08:17:27;100148.50;;;8.32;61.33
50268;BME280;36153;50.960;6.220;2022-11-20T08:20:28;100150.88;;;8.17;61.12
50268;BME280;36153;50.960;6.220;2022-11-20T08:23:28;100157.38;;;8.47;60.81
50268;BME280;36153;50.960;6.220;2022-11-20T08:26:28;100144.31;;;8.42;60.36
50268;BME280;36153;50.960;6.220;2022-11-20T08:29:29;100141.06;;;8.56;60.63
50268;BME280;36153;50.960;6.220;2022-11-20T08:32:30;100135.03;;;8.58;60.23
50268;BME280;36153;50.960;6.220;2022-11-20T08:35:36;100140.41;;;8.70;60.50
50268;BME280;36153;50.960;6.220;2022-11-20T08:38:37;100135.25;;;8.75;59.59
50268;BME280;36153;50.960;6.220;2022-11-20T08:41:38;100137.47;;;8.47;59.87
50268;BME280;36153;50.960;6.220;2022-11-20T08:44:38;100131.06;;;8.86;59.87
50268;BME280;36153;50.960;6.220;2022-11-20T08:47:38;100139.81;;;8.93;59.36
50268;BME280;36153;50.960;6.220;2022-11-20T08:50:39;100130.63;;;9.20;58.91
50268;BME280;36153;50.960;6.220;2022-11-20T08:53:40;100141.09;;;9.29;58.43
50268;BME280;36153;50.960;6.220;2022-11-20T08:56:40;100144.47;;;9.20;59.17
50268;BME280;36153;50.960;6.220;2022-11-20T08:59:41;100134.28;;;9.40;58.64
50268;BME280;36153;50.960;6.220;2022-11-20T09:02:41;100132.56;;;9.39;57.94
50268;BME280;36153;50.960;6.220;2022-11-20T09:05:41;100133.69;;;9.68;57.66
50268;BME280;36153;50.960;6.220;2022-11-20T09:08:43;100135.63;;;9.89;57.42
50268;BME280;36153;50.960;6.220;2022-11-20T09:11:43;100127.81;;;9.89;56.77
50268;BME280;36153;50.960;6.220;2022-11-20T09:14:44;100133.00;;;9.89;56.91
50268;BME280;36153;50.960;6.220;2022-11-20T09:17:58;100135.59;;;9.87;57.08
50268;BME280;36153;50.960;6.220;2022-11-20T09:21:00;100124.41;;;9.96;57.03
50268;BME280;36153;50.960;6.220;2022-11-20T09:24:00;100126.09;;;9.91;56.67
50268;BME280;36153;50.960;6.220;2022-11-20T09:27:02;100131.09;;;9.69;56.88
50268;BME280;36153;50.960;6.220;2022-11-20T09:30:04;100121.44;;;9.56;57.71
50268;BME280;36153;50.960;6.220;2022-11-20T09:33:06;100121.53;;;9.64;57.52
50268;BME280;36153;50.960;6.220;2022-11-20T09:36:06;100119.16;;;9.90;57.77
50268;BME280;36153;50.960;6.220;2022-11-20T09:39:07;100108.03;;;10.08;57.71
50268;BME280;36153;50.960;6.220;2022-11-20T09:55:31;100098.63;;;10.27;56.31
50268;BME280;36153;50.960;6.220;2022-11-20T09:58:40;100096.91;;;10.29;56.24
50268;BME280;36153;50.960;6.220;2022-11-20T10:01:41;100086.63;;;10.48;55.98
50268;BME280;36153;50.960;6.220;2022-11-20T10:04:47;100084.72;;;10.27;55.73
50268;BME280;36153;50.960;6.220;2022-11-20T10:11:15;100071.91;;;10.57;55.31
50268;BME280;36153;50.960;6.220;2022-11-20T10:28:27;100074.44;;;10.44;56.11
50268;BME280;36153;50.960;6.220;2022-11-20T10:31:40;100056.22;;;10.44;56.45
50268;BME280;36153;50.960;6.220;2022-11-20T10:34:49;100063.25;;;10.63;56.41
50268;BME280;36153;50.960;6.220;2022-11-20T10:38:00;100063.31;;;10.74;55.80
50268;BME280;36153;50.960;6.220;2022-11-20T10:41:03;100057.25;;;10.80;56.02
50268;BME280;36153;50.960;6.220;2022-11-20T10:44:29;100048.56;;;10.78;55.85
50268;BME280;36153;50.960;6.220;2022-11-20T10:47:48;100032.09;;;10.82;55.60
50268;BME280;36153;50.960;6.220;2022-11-20T10:54:35;100014.78;;;10.93;55.94
50268;BME280;36153;50.960;6.220;2022-11-20T10:57:54;100007.81;;;10.90;56.20
50268;BME280;36153;50.960;6.220;2022-11-20T11:01:16;100009.56;;;11.01;56.33
50268;BME280;36153;50.960;6.220;2022-11-20T11:04:46;100003.50;;;10.97;56.09
50268;BME280;36153;50.960;6.220;2022-11-20T11:07:54;99996.53;;;10.95;56.29
50268;BME280;36153;50.960;6.220;2022-11-20T11:11:13;99991.31;;;10.99;56.36
50268;BME280;36153;50.960;6.220;2022-11-20T11:14:18;99987.88;;;10.92;56.49
50268;BME280;36153;50.960;6.220;2022-11-20T11:17:28;99980.03;;;10.80;57.06
50268;BME280;36153;50.960;6.220;2022-11-20T11:20:30;99979.16;;;10.80;56.93
50268;BME280;36153;50.960;6.220;2022-11-20T11:23:38;99965.25;;;10.68;57.87
50268;BME280;36153;50.960;6.220;2022-11-20T11:26:39;99965.28;;;10.81;57.70
50268;BME280;36153;50.960;6.220;2022-11-20T11:29:39;99953.16;;;11.01;57.42
50268;BME280;36153;50.960;6.220;2022-11-20T11:32:40;99947.94;;;11.04;57.36
50268;BME280;36153;50.960;6.220;2022-11-20T11:35:49;99948.81;;;11.14;57.44
50268;BME280;36153;50.960;6.220;2022-11-20T11:38:51;99941.88;;;11.07;56.63
50268;BME280;36153;50.960;6.220;2022-11-20T11:41:53;99930.59;;;11.08;57.05
50268;BME280;36153;50.960;6.220;2022-11-20T11:44:56;99921.91;;;11.14;57.19
50268;BME280;36153;50.960;6.220;2022-11-20T11:48:08;99920.16;;;11.09;57.35
50268;BME280;36153;50.960;6.220;2022-11-20T11:51:09;99914.94;;;11.22;57.19
50268;BME280;36153;50.960;6.220;2022-11-20T11:54:16;99911.47;;;11.32;56.76
50268;BME280;36153;50.960;6.220;2022-11-20T11:57:28;99908.00;;;11.24;56.86
50268;BME280;36153;50.960;6.220;2022-11-20T12:00:31;99901.88;;;11.34;56.89
50268;BME280;36153;50.960;6.220;2022-11-20T12:03:35;99904.47;;;11.48;56.72
50268;BME280;36153;50.960;6.220;2022-11-20T12:06:39;99897.56;;;11.36;56.52
50268;BME280;36153;50.960;6.220;2022-11-20T12:09:47;99895.81;;;11.41;57.06
50268;BME280;36153;50.960;6.220;2022-11-20T12:13:01;99891.38;;;11.74;56.82
50268;BME280;36153;50.960;6.220;2022-11-20T12:16:04;99877.50;;;11.65;56.09
50268;BME280;36153;50.960;6.220;2022-11-20T12:19:11;99878.41;;;11.64;57.32
50268;BME280;36153;50.960;6.220;2022-11-20T12:22:37;99872.31;;;11.60;56.76
50268;BME280;36153;50.960;6.220;2022-11-20T12:25:42;99868.91;;;11.35;57.11
50268;BME280;36153;50.960;6.220;2022-11-20T12:28:57;99872.38;;;11.34;57.52
50268;BME280;36153;50.960;6.220;2022-11-20T12:38:58;99858.50;;;11.22;57.67
50268;BME280;36153;50.960;6.220;2022-11-20T12:46:05;99844.50;;;11.57;57.52
50268;BME280;36153;50.960;6.220;2022-11-20T12:49:36;99841.88;;;11.68;57.34
50268;BME280;36153;50.960;6.220;2022-11-20T12:52:47;99834.06;;;11.68;57.20
50268;BME280;36153;50.960;6.220;2022-11-20T12:59:19;99815.88;;;11.47;57.53
50268;BME280;36153;50.960;6.220;2022-11-20T13:08:58;99801.13;;;11.39;58.32
50268;BME280;36153;50.960;6.220;2022-11-20T13:18:48;99783.75;;;11.46;58.23
50268;BME280;36153;50.960;6.220;2022-11-20T13:21:49;99774.19;;;11.43;58.27
50268;BME280;36153;50.960;6.220;2022-11-20T13:24:51;99767.25;;;11.44;58.17
50268;BME280;36153;50.960;6.220;2022-11-20T13:27:52;99760.28;;;11.38;58.46
50268;BME280;36153;50.960;6.220;2022-11-20T13:30:54;99757.63;;;11.57;58.56
50268;BME280;36153;50.960;6.220;2022-11-20T13:33:57;99751.50;;;11.67;57.98
50268;BME280;36153;50.960;6.220;2022-11-20T13:36:59;99749.69;;;11.80;58.36
50268;BME280;36153;50.960;6.220;2022-11-20T13:43:19;99742.72;;;11.82;58.42
50268;BME280;36153;50.960;6.220;2022-11-20T13:46:21;99743.59;;;11.79;58.46
50268;BME280;36153;50.960;6.220;2022-11-20T13:49:37;99742.75;;;11.77;58.69
50268;BME280;36153;50.960;6.220;2022-11-20T13:55:59;99720.34;;;11.44;60.23
50268;BME280;36153;50.960;6.220;2022-11-20T14:02:23;99703.63;;;11.76;59.17
50268;BME280;36153;50.960;6.220;2022-11-20T14:05:25;99698.63;;;11.40;60.22
50268;BME280;36153;50.960;6.220;2022-11-20T14:11:36;99688.06;;;11.67;59.60
50268;BME280;36153;50.960;6.220;2022-11-20T14:14:50;99685.44;;;11.68;59.19
50268;BME280;36153;50.960;6.220;2022-11-20T14:17:54;99688.94;;;11.67;58.97
50268;BME280;36153;50.960;6.220;2022-11-20T14:20:54;99677.78;;;11.39;59.76
50268;BME280;36153;50.960;6.220;2022-11-20T14:24:05;99682.94;;;11.53;59.77
50268;BME280;36153;50.960;6.220;2022-11-20T14:27:13;99679.53;;;11.37;60.37
50268;BME280;36153;50.960;6.220;2022-11-20T14:30:16;99676.78;;;11.65;59.62
50268;BME280;36153;50.960;6.220;2022-11-20T14:33:18;99674.88;;;11.93;58.42
50268;BME280;36153;50.960;6.220;2022-11-20T14:36:22;99674.94;;;11.82;58.10
50268;BME280;36153;50.960;6.220;2022-11-20T14:39:35;99670.59;;;11.81;57.88
50268;BME280;36153;50.960;6.220;2022-11-20T14:42:36;99662.78;;;11.79;57.97
50268;BME280;36153;50.960;6.220;2022-11-20T14:45:38;99652.38;;;11.76;58.35
50268;BME280;36153;50.960;6.220;2022-11-20T14:48:46;99662.84;;;11.73;58.49
50268;BME280;36153;50.960;6.220;2022-11-20T14:52:11;99654.28;;;11.47;58.35
50268;BME280;36153;50.960;6.220;2022-11-20T14:55:13;99648.16;;;11.52;58.21
50268;BME280;36153;50.960;6.220;2022-11-20T14:58:27;99634.25;;;11.56;58.45
50268;BME280;36153;50.960;6.220;2022-11-20T15:01:30;99632.50;;;11.58;58.43
50268;BME280;36153;50.960;6.220;2022-11-20T15:04:31;99617.81;;;11.50;58.72
50268;BME280;36153;50.960;6.220;2022-11-20T15:07:38;99612.50;;;11.60;58.63
50268;BME280;36153;50.960;6.220;2022-11-20T15:10:49;99609.91;;;11.59;59.00
50268;BME280;36153;50.960;6.220;2022-11-20T15:13:50;99600.38;;;11.55;58.90
50268;BME280;36153;50.960;6.220;2022-11-20T15:16:51;99595.09;;;11.64;58.99
50268;BME280;36153;50.960;6.220;2022-11-20T15:19:52;99578.72;;;11.45;59.90
50268;BME280;36153;50.960;6.220;2022-11-20T15:22:53;99567.53;;;11.32;60.49
50268;BME280;36153;50.960;6.220;2022-11-20T15:25:54;99567.59;;;11.20;60.73
50268;BME280;36153;50.960;6.220;2022-11-20T15:28:55;99562.41;;;11.17;60.81
50268;BME280;36153;50.960;6.220;2022-11-20T15:31:55;99551.16;;;11.12;61.56
50268;BME280;36153;50.960;6.220;2022-11-20T15:34:56;99548.50;;;11.21;61.36
50268;BME280;36153;50.960;6.220;2022-11-20T15:37:56;99543.38;;;11.07;61.87
50268;BME280;36153;50.960;6.220;2022-11-20T15:40:57;99531.16;;;11.17;61.69
50268;BME280;36153;50.960;6.220;2022-11-20T15:43:57;99527.75;;;11.01;62.34
50268;BME280;36153;50.960;6.220;2022-11-20T15:46:58;99529.66;;;10.75;63.47
50268;BME280;36153;50.960;6.220;2022-11-20T15:49:58;99536.47;;;11.01;62.90
50268;BME280;36153;50.960;6.220;2022-11-20T15:52:59;99522.50;;;11.12;62.36
50268;BME280;36153;50.960;6.220;2022-11-20T15:55:59;99519.97;;;11.01;62.59
50268;BME280;36153;50.960;6.220;2022-11-20T15:58:59;99517.44;;;10.90;63.16
50268;BME280;36153;50.960;6.220;2022-11-20T16:02:00;99518.31;;;10.87;63.41
50268;BME280;36153;50.960;6.220;2022-11-20T16:05:01;99503.50;;;10.97;63.32
50268;BME280;36153;50.960;6.220;2022-11-20T16:08:01;99505.31;;;10.86;63.21
50268;BME280;36153;50.960;6.220;2022-11-20T16:11:01;99499.31;;;10.74;63.77
50268;BME280;36153;50.960;6.220;2022-11-20T16:14:03;99504.34;;;10.99;63.24
50268;BME280;36153;50.960;6.220;2022-11-20T16:17:22;99490.47;;;11.00;63.23
50268;BME280;36153;50.960;6.220;2022-11-20T16:20:42;99485.31;;;10.92;63.12
50268;BME280;36153;50.960;6.220;2022-11-20T16:23:43;99473.16;;;10.87;63.74
50268;BME280;36153;50.960;6.220;2022-11-20T16:26:44;99471.38;;;10.97;63.30
50268;BME280;36153;50.960;6.220;2022-11-20T16:29:45;99467.91;;;11.02;63.32
50268;BME280;36153;50.960;6.220;2022-11-20T16:32:45;99462.66;;;11.01;63.19
50268;BME280;36153;50.960;6.220;2022-11-20T16:35:46;99456.59;;;11.00;62.87
50268;BME280;36153;50.960;6.220;2022-11-20T16:38:51;99454.03;;;10.97;63.44
50268;BME280;36153;50.960;6.220;2022-11-20T16:41:51;99438.38;;;11.02;63.95
50268;BME280;36153;50.960;6.220;2022-11-20T16:44:51;99435.84;;;10.92;63.77
50268;BME280;36153;50.960;6.220;2022-11-20T16:47:52;99435.81;;;10.97;63.77
50268;BME280;36153;50.960;6.220;2022-11-20T16:50:52;99430.44;;;11.16;63.37
50268;BME280;36153;50.960;6.220;2022-11-20T16:53:54;99431.31;;;11.15;63.50
50268;BME280;36153;50.960;6.220;2022-11-20T16:56:56;99432.22;;;11.10;63.41
50268;BME280;36153;50.960;6.220;2022-11-20T16:59:56;99422.03;;;10.80;64.95
50268;BME280;36153;50.960;6.220;2022-11-20T17:02:57;99416.66;;;11.04;64.77
50268;BME280;36153;50.960;6.220;2022-11-20T17:05:59;99418.31;;;11.13;64.70
50268;BME280;36153;50.960;6.220;2022-11-20T17:09:00;99402.78;;;11.02;64.76
50268;BME280;36153;50.960;6.220;2022-11-20T17:12:00;99403.69;;;10.93;65.35
50268;BME280;36153;50.960;6.220;2022-11-20T17:15:02;99400.19;;;10.98;65.35
50268;BME280;36153;50.960;6.220;2022-11-20T17:18:03;99401.00;;;11.07;65.24
50268;BME280;36153;50.960;6.220;2022-11-20T17:21:04;99386.34;;;10.94;65.82
50268;BME280;36153;50.960;6.220;2022-11-20T17:24:08;99391.38;;;11.14;65.29
50268;BME280;36153;50.960;6.220;2022-11-20T17:27:11;99407.00;;;11.14;65.43